sensor_id;sensor_type;location;lat;lon;timestamp;pressure;altitude;pressure_sealevel;temperature
67501;BMP180;54349;52.528;19.760;2023-03-19T00:01:04;100671.00;;;22.80
67501;BMP180;54349;52.528;19.760;2023-03-19T00:03:41;100673.40;;;22.80
67501;BMP180;54349;52.528;19.760;2023-03-19T00:06:10;100680.80;;;22.80
67501;BMP180;54349;52.528;19.760;2023-03-19T00:08:38;100685.40;;;22.84
67501;BMP180;54349;52.528;19.760;2023-03-19T00:11:09;100693.00;;;22.90
67501;BMP180;54349;52.528;19.760;2023-03-19T00:13:39;100691.40;;;22.84
67501;BMP180;54349;52.528;19.760;2023-03-19T00:16:07;100692.20;;;22.86
67501;BMP180;54349;52.528;19.760;2023-03-19T00:18:35;100696.40;;;22.86
67501;BMP180;54349;52.528;19.760;2023-03-19T00:21:04;100689.60;;;22.86
67501;BMP180;54349;52.528;19.760;2023-03-19T00:23:34;100683.00;;;22.86
67501;BMP180;54349;52.528;19.760;2023-03-19T00:26:03;100685.60;;;22.80
67501;BMP180;54349;52.528;19.760;2023-03-19T00:28:31;100687.40;;;22.80
67501;BMP180;54349;52.528;19.760;2023-03-19T00:31:12;100692.40;;;22.80
67501;BMP180;54349;52.528;19.760;2023-03-19T00:33:42;100695.80;;;22.90
67501;BMP180;54349;52.528;19.760;2023-03-19T00:36:10;100692.60;;;22.90
67501;BMP180;54349;52.528;19.760;2023-03-19T00:38:57;100689.80;;;22.90
67501;BMP180;54349;52.528;19.760;2023-03-19T00:41:26;100689.00;;;22.92
67501;BMP180;54349;52.528;19.760;2023-03-19T00:43:56;100689.00;;;22.98
67501;BMP180;54349;52.528;19.760;2023-03-19T00:46:25;100689.60;;;23.00
67501;BMP180;54349;52.528;19.760;2023-03-19T00:48:54;100691.40;;;23.00
67501;BMP180;54349;52.528;19.760;2023-03-19T00:51:24;100690.20;;;23.00
67501;BMP180;54349;52.528;19.760;2023-03-19T00:53:52;100689.60;;;23.00
67501;BMP180;54349;52.528;19.760;2023-03-19T00:56:22;100692.80;;;23.00
67501;BMP180;54349;52.528;19.760;2023-03-19T00:58:50;100692.00;;;23.04
67501;BMP180;54349;52.528;19.760;2023-03-19T01:01:19;100691.20;;;23.10
67501;BMP180;54349;52.528;19.760;2023-03-19T01:03:49;100693.00;;;23.10
67501;BMP180;54349;52.528;19.760;2023-03-19T01:06:18;100697.00;;;23.10
67501;BMP180;54349;52.528;19.760;2023-03-19T01:08:47;100694.80;;;23.10
67501;BMP180;54349;52.528;19.760;2023-03-19T01:11:18;100691.40;;;23.10
67501;BMP180;54349;52.528;19.760;2023-03-19T01:13:47;100693.40;;;23.10
67501;BMP180;54349;52.528;19.760;2023-03-19T01:16:16;100690.60;;;23.10
67501;BMP180;54349;52.528;19.760;2023-03-19T01:18:45;100685.60;;;23.10
67501;BMP180;54349;52.528;19.760;2023-03-19T01:21:13;100686.20;;;23.18
67501;BMP180;54349;52.528;19.760;2023-03-19T01:23:46;100684.20;;;23.16
67501;BMP180;54349;52.528;19.760;2023-03-19T01:26:16;100682.40;;;23.20
67501;BMP180;54349;52.528;19.760;2023-03-19T01:28:46;100688.00;;;23.20
67501;BMP180;54349;52.528;19.760;2023-03-19T01:31:15;100680.60;;;23.20
67501;BMP180;54349;52.528;19.760;2023-03-19T01:34:06;100679.40;;;23.20
67501;BMP180;54349;52.528;19.760;2023-03-19T01:36:55;100677.40;;;23.20
67501;BMP180;54349;52.528;19.760;2023-03-19T01:39:33;100682.60;;;23.20
67501;BMP180;54349;52.528;19.760;2023-03-19T01:42:07;100678.20;;;23.20
67501;BMP180;54349;52.528;19.760;2023-03-19T01:44:45;100680.00;;;23.20
67501;BMP180;54349;52.528;19.760;2023-03-19T01:47:41;100678.60;;;23.20
67501;BMP180;54349;52.528;19.760;2023-03-19T01:50:27;100679.00;;;23.20
67501;BMP180;54349;52.528;19.760;2023-03-19T01:53:16;100681.80;;;23.20
67501;BMP180;54349;52.528;19.760;2023-03-19T01:56:15;100682.80;;;23.20
67501;BMP180;54349;52.528;19.760;2023-03-19T01:59:18;100685.20;;;23.20
67501;BMP180;54349;52.528;19.760;2023-03-19T02:02:26;100680.40;;;23.20
67501;BMP180;54349;52.528;19.760;2023-03-19T02:05:12;100682.20;;;23.20
67501;BMP180;54349;52.528;19.760;2023-03-19T02:07:44;100682.40;;;23.20
67501;BMP180;54349;52.528;19.760;2023-03-19T02:10:16;100685.40;;;23.20
67501;BMP180;54349;52.528;19.760;2023-03-19T02:12:45;100689.80;;;23.20
67501;BMP180;54349;52.528;19.760;2023-03-19T02:15:15;100689.00;;;23.20
67501;BMP180;54349;52.528;19.760;2023-03-19T02:17:45;100692.60;;;23.20
67501;BMP180;54349;52.528;19.760;2023-03-19T02:20:39;100691.00;;;23.20
67501;BMP180;54349;52.528;19.760;2023-03-19T02:26:49;100695.80;;;23.20
67501;BMP180;54349;52.528;19.760;2023-03-19T02:29:18;100692.20;;;23.20
67501;BMP180;54349;52.528;19.760;2023-03-19T02:31:46;100687.80;;;23.20
67501;BMP180;54349;52.528;19.760;2023-03-19T02:34:42;100689.80;;;23.20
67501;BMP180;54349;52.528;19.760;2023-03-19T02:37:25;100688.20;;;23.20
67501;BMP180;54349;52.528;19.760;2023-03-19T02:40:28;100686.60;;;23.16
67501;BMP180;54349;52.528;19.760;2023-03-19T02:42:59;100685.20;;;23.10
67501;BMP180;54349;52.528;19.760;2023-03-19T02:45:30;100687.40;;;23.10
67501;BMP180;54349;52.528;19.760;2023-03-19T02:47:59;100690.80;;;23.00
67501;BMP180;54349;52.528;19.760;2023-03-19T02:50:27;100698.60;;;23.00
67501;BMP180;54349;52.528;19.760;2023-03-19T02:52:55;100695.80;;;23.00
67501;BMP180;54349;52.528;19.760;2023-03-19T02:55:23;100694.60;;;22.92
67501;BMP180;54349;52.528;19.760;2023-03-19T02:57:52;100692.80;;;22.90
67501;BMP180;54349;52.528;19.760;2023-03-19T03:00:21;100698.60;;;22.90
67501;BMP180;54349;52.528;19.760;2023-03-19T03:02:50;100696.20;;;22.80
67501;BMP180;54349;52.528;19.760;2023-03-19T03:05:18;100694.60;;;22.80
67501;BMP180;54349;52.528;19.760;2023-03-19T03:07:47;100693.40;;;22.80
67501;BMP180;54349;52.528;19.760;2023-03-19T03:10:16;100693.60;;;22.70
67501;BMP180;54349;52.528;19.760;2023-03-19T03:12:44;100690.80;;;22.70
67501;BMP180;54349;52.528;19.760;2023-03-19T03:15:13;100685.60;;;22.70
67501;BMP180;54349;52.528;19.760;2023-03-19T03:17:42;100685.20;;;22.60
67501;BMP180;54349;52.528;19.760;2023-03-19T03:20:15;100680.40;;;22.60
67501;BMP180;54349;52.528;19.760;2023-03-19T03:22:45;100678.80;;;22.60
67501;BMP180;54349;52.528;19.760;2023-03-19T03:25:13;100683.20;;;22.50
67501;BMP180;54349;52.528;19.760;2023-03-19T03:27:41;100692.40;;;22.50
67501;BMP180;54349;52.528;19.760;2023-03-19T03:30:12;100690.20;;;22.50
67501;BMP180;54349;52.528;19.760;2023-03-19T03:32:43;100690.40;;;22.40
67501;BMP180;54349;52.528;19.760;2023-03-19T03:35:12;100682.20;;;22.40
67501;BMP180;54349;52.528;19.760;2023-03-19T03:37:42;100683.60;;;22.40
67501;BMP180;54349;52.528;19.760;2023-03-19T03:40:11;100684.00;;;22.32
67501;BMP180;54349;52.528;19.760;2023-03-19T03:42:39;100683.80;;;22.30
67501;BMP180;54349;52.528;19.760;2023-03-19T03:45:08;100684.60;;;22.30
67501;BMP180;54349;52.528;19.760;2023-03-19T03:47:37;100691.00;;;22.30
67501;BMP180;54349;52.528;19.760;2023-03-19T03:50:07;100682.00;;;22.20
67501;BMP180;54349;52.528;19.760;2023-03-19T03:52:39;100680.20;;;22.20
67501;BMP180;54349;52.528;19.760;2023-03-19T03:55:09;100675.60;;;22.20
67501;BMP180;54349;52.528;19.760;2023-03-19T03:57:37;100678.60;;;22.20
67501;BMP180;54349;52.528;19.760;2023-03-19T04:00:06;100673.40;;;22.10
67501;BMP180;54349;52.528;19.760;2023-03-19T04:02:40;100679.00;;;22.10
67501;BMP180;54349;52.528;19.760;2023-03-19T04:05:11;100685.80;;;22.10
67501;BMP180;54349;52.528;19.760;2023-03-19T04:07:39;100688.60;;;22.02
67501;BMP180;54349;52.528;19.760;2023-03-19T04:10:10;100688.40;;;22.00
67501;BMP180;54349;52.528;19.760;2023-03-19T04:12:39;100686.80;;;22.00
67501;BMP180;54349;52.528;19.760;2023-03-19T04:15:10;100685.60;;;22.00
67501;BMP180;54349;52.528;19.760;2023-03-19T04:17:39;100683.60;;;21.90
67501;BMP180;54349;52.528;19.760;2023-03-19T04:20:10;100681.80;;;21.90
67501;BMP180;54349;52.528;19.760;2023-03-19T04:22:39;100676.40;;;21.90
67501;BMP180;54349;52.528;19.760;2023-03-19T04:25:08;100680.60;;;21.82
67501;BMP180;54349;52.528;19.760;2023-03-19T04:27:36;100683.00;;;21.80
67501;BMP180;54349;52.528;19.760;2023-03-19T04:30:05;100683.00;;;21.80
67501;BMP180;54349;52.528;19.760;2023-03-19T04:32:33;100687.20;;;21.80
67501;BMP180;54349;52.528;19.760;2023-03-19T04:35:02;100691.40;;;21.72
67501;BMP180;54349;52.528;19.760;2023-03-19T04:37:33;100692.80;;;21.70
67501;BMP180;54349;52.528;19.760;2023-03-19T04:40:00;100695.00;;;21.70
67501;BMP180;54349;52.528;19.760;2023-03-19T04:42:30;100696.40;;;21.70
67501;BMP180;54349;52.528;19.760;2023-03-19T04:45:21;100698.20;;;21.66
67501;BMP180;54349;52.528;19.760;2023-03-19T04:47:49;100693.00;;;21.60
67501;BMP180;54349;52.528;19.760;2023-03-19T04:50:19;100689.60;;;21.60
67501;BMP180;54349;52.528;19.760;2023-03-19T04:52:47;100687.20;;;21.60
67501;BMP180;54349;52.528;19.760;2023-03-19T04:55:16;100691.40;;;21.60
67501;BMP180;54349;52.528;19.760;2023-03-19T04:57:54;100689.20;;;21.60
67501;BMP180;54349;52.528;19.760;2023-03-19T05:00:25;100684.60;;;21.60
67501;BMP180;54349;52.528;19.760;2023-03-19T05:02:56;100684.20;;;21.70
67501;BMP180;54349;52.528;19.760;2023-03-19T05:05:24;100686.20;;;21.70
67501;BMP180;54349;52.528;19.760;2023-03-19T05:07:52;100683.40;;;21.70
67501;BMP180;54349;52.528;19.760;2023-03-19T05:10:20;100685.40;;;21.70
67501;BMP180;54349;52.528;19.760;2023-03-19T05:12:49;100681.60;;;21.80
67501;BMP180;54349;52.528;19.760;2023-03-19T05:15:17;100685.00;;;21.90
67501;BMP180;54349;52.528;19.760;2023-03-19T05:17:54;100690.20;;;21.90
67501;BMP180;54349;52.528;19.760;2023-03-19T05:20:27;100695.80;;;21.96
67501;BMP180;54349;52.528;19.760;2023-03-19T05:22:59;100695.20;;;22.00
67501;BMP180;54349;52.528;19.760;2023-03-19T05:25:35;100695.80;;;22.00
67501;BMP180;54349;52.528;19.760;2023-03-19T05:28:06;100703.40;;;22.00
67501;BMP180;54349;52.528;19.760;2023-03-19T05:30:35;100703.20;;;22.10
67501;BMP180;54349;52.528;19.760;2023-03-19T05:33:08;100702.60;;;22.16
67501;BMP180;54349;52.528;19.760;2023-03-19T05:35:41;100706.40;;;22.20
67501;BMP180;54349;52.528;19.760;2023-03-19T05:38:15;100707.60;;;22.20
67501;BMP180;54349;52.528;19.760;2023-03-19T05:40:46;100711.60;;;22.20
67501;BMP180;54349;52.528;19.760;2023-03-19T05:43:25;100705.20;;;22.18
67501;BMP180;54349;52.528;19.760;2023-03-19T05:45:54;100707.80;;;22.20
67501;BMP180;54349;52.528;19.760;2023-03-19T05:48:27;100708.60;;;22.20
67501;BMP180;54349;52.528;19.760;2023-03-19T05:50:56;100708.20;;;22.20
67501;BMP180;54349;52.528;19.760;2023-03-19T05:53:31;100705.40;;;22.20
67501;BMP180;54349;52.528;19.760;2023-03-19T05:56:18;100700.40;;;22.20
67501;BMP180;54349;52.528;19.760;2023-03-19T05:58:57;100701.80;;;22.20
67501;BMP180;54349;52.528;19.760;2023-03-19T06:01:29;100697.60;;;22.14
67501;BMP180;54349;52.528;19.760;2023-03-19T06:03:59;100695.00;;;22.10
67501;BMP180;54349;52.528;19.760;2023-03-19T06:06:31;100689.60;;;22.10
67501;BMP180;54349;52.528;19.760;2023-03-19T06:08:59;100693.40;;;22.10
67501;BMP180;54349;52.528;19.760;2023-03-19T06:11:38;100703.20;;;22.10
67501;BMP180;54349;52.528;19.760;2023-03-19T06:14:45;100705.20;;;22.00
67501;BMP180;54349;52.528;19.760;2023-03-19T06:17:35;100706.60;;;22.00
67501;BMP180;54349;52.528;19.760;2023-03-19T06:20:07;100710.60;;;22.00
67501;BMP180;54349;52.528;19.760;2023-03-19T06:22:39;100712.00;;;21.98
67501;BMP180;54349;52.528;19.760;2023-03-19T06:25:08;100714.40;;;21.90
67501;BMP180;54349;52.528;19.760;2023-03-19T06:27:37;100713.60;;;21.90
67501;BMP180;54349;52.528;19.760;2023-03-19T06:30:38;100715.20;;;21.90
67501;BMP180;54349;52.528;19.760;2023-03-19T06:33:22;100715.60;;;21.88
67501;BMP180;54349;52.528;19.760;2023-03-19T06:35:55;100719.40;;;21.80
67501;BMP180;54349;52.528;19.760;2023-03-19T06:38:24;100719.40;;;21.80
67501;BMP180;54349;52.528;19.760;2023-03-19T06:40:52;100714.60;;;21.80
67501;BMP180;54349;52.528;19.760;2023-03-19T06:43:20;100725.80;;;21.80
67501;BMP180;54349;52.528;19.760;2023-03-19T06:45:49;100729.20;;;21.80
67501;BMP180;54349;52.528;19.760;2023-03-19T06:48:18;100731.20;;;21.76
67501;BMP180;54349;52.528;19.760;2023-03-19T06:50:46;100729.20;;;21.72
67501;BMP180;54349;52.528;19.760;2023-03-19T06:53:14;100732.80;;;21.70
67501;BMP180;54349;52.528;19.760;2023-03-19T06:55:45;100734.00;;;21.70
67501;BMP180;54349;52.528;19.760;2023-03-19T06:58:13;100730.00;;;21.70
67501;BMP180;54349;52.528;19.760;2023-03-19T07:00:42;100725.40;;;21.70
67501;BMP180;54349;52.528;19.760;2023-03-19T07:03:12;100725.00;;;21.70
67501;BMP180;54349;52.528;19.760;2023-03-19T07:05:40;100725.60;;;21.70
67501;BMP180;54349;52.528;19.760;2023-03-19T07:08:09;100729.20;;;21.68
67501;BMP180;54349;52.528;19.760;2023-03-19T07:10:39;100728.60;;;21.66
67501;BMP180;54349;52.528;19.760;2023-03-19T07:13:07;100728.20;;;21.64
67501;BMP180;54349;52.528;19.760;2023-03-19T07:15:36;100732.20;;;21.60
67501;BMP180;54349;52.528;19.760;2023-03-19T07:18:05;100729.40;;;21.64
67501;BMP180;54349;52.528;19.760;2023-03-19T07:20:33;100732.20;;;21.60
67501;BMP180;54349;52.528;19.760;2023-03-19T07:23:01;100737.60;;;21.60
67501;BMP180;54349;52.528;19.760;2023-03-19T07:25:30;100740.20;;;21.60
67501;BMP180;54349;52.528;19.760;2023-03-19T07:27:58;100741.40;;;21.60
67501;BMP180;54349;52.528;19.760;2023-03-19T07:30:27;100746.80;;;21.60
67501;BMP180;54349;52.528;19.760;2023-03-19T07:32:55;100752.00;;;21.60
67501;BMP180;54349;52.528;19.760;2023-03-19T07:35:23;100755.60;;;21.60
67501;BMP180;54349;52.528;19.760;2023-03-19T07:37:52;100753.60;;;21.60
67501;BMP180;54349;52.528;19.760;2023-03-19T07:40:21;100749.40;;;21.60
67501;BMP180;54349;52.528;19.760;2023-03-19T07:42:51;100749.40;;;21.60
67501;BMP180;54349;52.528;19.760;2023-03-19T07:45:21;100748.60;;;21.70
67501;BMP180;54349;52.528;19.760;2023-03-19T07:47:50;100750.80;;;21.70
67501;BMP180;54349;52.528;19.760;2023-03-19T07:50:19;100755.00;;;21.80
67501;BMP180;54349;52.528;19.760;2023-03-19T07:52:48;100757.00;;;21.80
67501;BMP180;54349;52.528;19.760;2023-03-19T07:55:18;100757.60;;;21.80
67501;BMP180;54349;52.528;19.760;2023-03-19T07:57:48;100754.20;;;21.80
67501;BMP180;54349;52.528;19.760;2023-03-19T08:00:17;100758.00;;;21.80
67501;BMP180;54349;52.528;19.760;2023-03-19T08:02:45;100758.80;;;21.80
67501;BMP180;54349;52.528;19.760;2023-03-19T08:05:14;100759.40;;;21.88
67501;BMP180;54349;52.528;19.760;2023-03-19T08:07:43;100758.60;;;21.90
67501;BMP180;54349;52.528;19.760;2023-03-19T08:10:12;100759.20;;;21.90
67501;BMP180;54349;52.528;19.760;2023-03-19T08:12:40;100762.20;;;21.96
67501;BMP180;54349;52.528;19.760;2023-03-19T08:15:10;100757.60;;;21.96
67501;BMP180;54349;52.528;19.760;2023-03-19T08:17:38;100759.20;;;22.00
67501;BMP180;54349;52.528;19.760;2023-03-19T08:20:11;100756.40;;;22.00
67501;BMP180;54349;52.528;19.760;2023-03-19T08:22:40;100756.40;;;22.00
67501;BMP180;54349;52.528;19.760;2023-03-19T08:25:09;100752.00;;;22.00
67501;BMP180;54349;52.528;19.760;2023-03-19T08:27:38;100753.60;;;22.00
67501;BMP180;54349;52.528;19.760;2023-03-19T08:30:11;100750.60;;;22.00
67501;BMP180;54349;52.528;19.760;2023-03-19T08:32:40;100744.20;;;22.00
67501;BMP180;54349;52.528;19.760;2023-03-19T08:35:09;100745.80;;;22.08
67501;BMP180;54349;52.528;19.760;2023-03-19T08:37:38;100746.60;;;22.10
67501;BMP180;54349;52.528;19.760;2023-03-19T08:40:07;100747.60;;;22.10
67501;BMP180;54349;52.528;19.760;2023-03-19T08:42:36;100752.20;;;22.10
67501;BMP180;54349;52.528;19.760;2023-03-19T08:45:14;100747.80;;;22.10
67501;BMP180;54349;52.528;19.760;2023-03-19T08:47:42;100749.60;;;22.10
67501;BMP180;54349;52.528;19.760;2023-03-19T08:50:11;100749.40;;;22.10
67501;BMP180;54349;52.528;19.760;2023-03-19T08:52:39;100751.40;;;22.10
67501;BMP180;54349;52.528;19.760;2023-03-19T08:55:09;100750.20;;;22.10
67501;BMP180;54349;52.528;19.760;2023-03-19T08:57:37;100754.40;;;22.12
67501;BMP180;54349;52.528;19.760;2023-03-19T09:00:09;100754.80;;;22.18
67501;BMP180;54349;52.528;19.760;2023-03-19T09:02:38;100754.20;;;22.20
67501;BMP180;54349;52.528;19.760;2023-03-19T09:05:08;100751.40;;;22.18
67501;BMP180;54349;52.528;19.760;2023-03-19T09:07:37;100750.20;;;22.20
67501;BMP180;54349;52.528;19.760;2023-03-19T09:10:06;100748.40;;;22.20
67501;BMP180;54349;52.528;19.760;2023-03-19T09:12:34;100747.60;;;22.20
67501;BMP180;54349;52.528;19.760;2023-03-19T09:15:03;100747.60;;;22.20
67501;BMP180;54349;52.528;19.760;2023-03-19T09:17:32;100748.20;;;22.20
67501;BMP180;54349;52.528;19.760;2023-03-19T09:20:00;100738.00;;;22.20
67501;BMP180;54349;52.528;19.760;2023-03-19T09:22:28;100739.00;;;22.20
67501;BMP180;54349;52.528;19.760;2023-03-19T09:24:56;100739.20;;;22.20
67501;BMP180;54349;52.528;19.760;2023-03-19T09:27:24;100737.00;;;22.20
67501;BMP180;54349;52.528;19.760;2023-03-19T09:29:53;100736.60;;;22.20
67501;BMP180;54349;52.528;19.760;2023-03-19T09:32:21;100740.20;;;22.20
67501;BMP180;54349;52.528;19.760;2023-03-19T09:34:49;100740.20;;;22.20
67501;BMP180;54349;52.528;19.760;2023-03-19T09:37:17;100741.20;;;22.20
67501;BMP180;54349;52.528;19.760;2023-03-19T09:39:46;100737.80;;;22.20
67501;BMP180;54349;52.528;19.760;2023-03-19T09:42:54;100738.20;;;22.20
67501;BMP180;54349;52.528;19.760;2023-03-19T09:45:27;100735.60;;;22.20
67501;BMP180;54349;52.528;19.760;2023-03-19T09:48:08;100738.00;;;22.20
67501;BMP180;54349;52.528;19.760;2023-03-19T09:50:39;100740.80;;;22.20
67501;BMP180;54349;52.528;19.760;2023-03-19T09:53:34;100744.00;;;22.24
67501;BMP180;54349;52.528;19.760;2023-03-19T09:56:12;100739.80;;;22.30
67501;BMP180;54349;52.528;19.760;2023-03-19T09:58:42;100741.60;;;22.30
67501;BMP180;54349;52.528;19.760;2023-03-19T10:01:24;100745.20;;;22.30
67501;BMP180;54349;52.528;19.760;2023-03-19T10:04:24;100744.20;;;22.30
67501;BMP180;54349;52.528;19.760;2023-03-19T10:07:41;100743.40;;;22.30
67501;BMP180;54349;52.528;19.760;2023-03-19T10:10:36;100739.00;;;22.30
67501;BMP180;54349;52.528;19.760;2023-03-19T10:16:25;100730.00;;;22.30
67501;BMP180;54349;52.528;19.760;2023-03-19T10:18:59;100730.80;;;22.30
67501;BMP180;54349;52.528;19.760;2023-03-19T10:21:52;100737.00;;;22.30
67501;BMP180;54349;52.528;19.760;2023-03-19T10:24:29;100741.20;;;22.30
67501;BMP180;54349;52.528;19.760;2023-03-19T10:27:03;100733.40;;;22.30
67501;BMP180;54349;52.528;19.760;2023-03-19T10:29:33;100727.20;;;22.30
67501;BMP180;54349;52.528;19.760;2023-03-19T10:32:18;100726.60;;;22.30
67501;BMP180;54349;52.528;19.760;2023-03-19T10:34:50;100729.60;;;22.32
67501;BMP180;54349;52.528;19.760;2023-03-19T10:37:26;100727.00;;;22.38
67501;BMP180;54349;52.528;19.760;2023-03-19T10:40:00;100726.60;;;22.40
67501;BMP180;54349;52.528;19.760;2023-03-19T10:43:03;100719.20;;;22.38
67501;BMP180;54349;52.528;19.760;2023-03-19T10:45:35;100721.00;;;22.40
67501;BMP180;54349;52.528;19.760;2023-03-19T10:48:14;100721.40;;;22.40
67501;BMP180;54349;52.528;19.760;2023-03-19T10:50:57;100726.80;;;22.40
67501;BMP180;54349;52.528;19.760;2023-03-19T10:53:33;100719.40;;;22.40
67501;BMP180;54349;52.528;19.760;2023-03-19T10:56:25;100711.60;;;22.40
67501;BMP180;54349;52.528;19.760;2023-03-19T10:59:39;100713.40;;;22.40
67501;BMP180;54349;52.528;19.760;2023-03-19T11:02:20;100717.00;;;22.44
67501;BMP180;54349;52.528;19.760;2023-03-19T11:07:39;100718.40;;;22.50
67501;BMP180;54349;52.528;19.760;2023-03-19T11:10:16;100716.80;;;22.50
67501;BMP180;54349;52.528;19.760;2023-03-19T11:12:55;100709.20;;;22.50
67501;BMP180;54349;52.528;19.760;2023-03-19T11:15:36;100702.00;;;22.50
67501;BMP180;54349;52.528;19.760;2023-03-19T11:18:22;100707.40;;;22.50
67501;BMP180;54349;52.528;19.760;2023-03-19T11:20:59;100699.20;;;22.50
67501;BMP180;54349;52.528;19.760;2023-03-19T11:23:40;100696.00;;;22.50
67501;BMP180;54349;52.528;19.760;2023-03-19T11:26:18;100694.80;;;22.58
67501;BMP180;54349;52.528;19.760;2023-03-19T11:28:51;100694.20;;;22.60
67501;BMP180;54349;52.528;19.760;2023-03-19T11:31:58;100692.40;;;22.60
67501;BMP180;54349;52.528;19.760;2023-03-19T11:34:55;100688.00;;;22.60
67501;BMP180;54349;52.528;19.760;2023-03-19T11:40:43;100679.80;;;22.60
67501;BMP180;54349;52.528;19.760;2023-03-19T11:46:25;100687.40;;;22.60
67501;BMP180;54349;52.528;19.760;2023-03-19T12:00:53;100680.40;;;22.70
67501;BMP180;54349;52.528;19.760;2023-03-19T12:06:50;100678.20;;;22.70
67501;BMP180;54349;52.528;19.760;2023-03-19T12:34:59;100653.80;;;22.70
67501;BMP180;54349;52.528;19.760;2023-03-19T12:37:43;100651.80;;;22.70
67501;BMP180;54349;52.528;19.760;2023-03-19T12:40:26;100652.60;;;22.70
67501;BMP180;54349;52.528;19.760;2023-03-19T12:42:58;100653.20;;;22.70
67501;BMP180;54349;52.528;19.760;2023-03-19T12:45:33;100655.00;;;22.74
67501;BMP180;54349;52.528;19.760;2023-03-19T12:48:15;100653.20;;;22.80
67501;BMP180;54349;52.528;19.760;2023-03-19T12:50:51;100650.60;;;22.80
67501;BMP180;54349;52.528;19.760;2023-03-19T12:53:33;100645.60;;;22.80
67501;BMP180;54349;52.528;19.760;2023-03-19T12:56:34;100644.40;;;22.80
67501;BMP180;54349;52.528;19.760;2023-03-19T13:03:17;100646.00;;;22.80
67501;BMP180;54349;52.528;19.760;2023-03-19T13:10:40;100647.60;;;22.80
67501;BMP180;54349;52.528;19.760;2023-03-19T13:16:37;100643.20;;;22.88
67501;BMP180;54349;52.528;19.760;2023-03-19T13:21:51;100642.20;;;22.90
67501;BMP180;54349;52.528;19.760;2023-03-19T13:24:33;100639.00;;;22.90
67501;BMP180;54349;52.528;19.760;2023-03-19T13:27:05;100643.80;;;22.90
67501;BMP180;54349;52.528;19.760;2023-03-19T13:29:35;100643.20;;;22.90
67501;BMP180;54349;52.528;19.760;2023-03-19T13:32:19;100641.20;;;22.90
67501;BMP180;54349;52.528;19.760;2023-03-19T13:34:49;100639.00;;;22.90
67501;BMP180;54349;52.528;19.760;2023-03-19T13:37:19;100632.00;;;22.90
67501;BMP180;54349;52.528;19.760;2023-03-19T13:39:48;100628.60;;;22.90
67501;BMP180;54349;52.528;19.760;2023-03-19T13:45:35;100625.00;;;22.90
67501;BMP180;54349;52.528;19.760;2023-03-19T13:54:11;100614.20;;;22.96
67501;BMP180;54349;52.528;19.760;2023-03-19T13:59:29;100615.60;;;22.98
67501;BMP180;54349;52.528;19.760;2023-03-19T14:02:00;100621.80;;;22.96
67501;BMP180;54349;52.528;19.760;2023-03-19T14:04:36;100618.20;;;22.98
67501;BMP180;54349;52.528;19.760;2023-03-19T14:09:49;100616.60;;;23.00
67501;BMP180;54349;52.528;19.760;2023-03-19T14:12:40;100618.60;;;23.10
67501;BMP180;54349;52.528;19.760;2023-03-19T14:15:27;100618.60;;;23.10
67501;BMP180;54349;52.528;19.760;2023-03-19T14:18:02;100617.40;;;23.10
67501;BMP180;54349;52.528;19.760;2023-03-19T14:23:25;100613.40;;;23.10
67501;BMP180;54349;52.528;19.760;2023-03-19T14:26:22;100607.40;;;23.10
67501;BMP180;54349;52.528;19.760;2023-03-19T14:31:47;100604.20;;;23.18
67501;BMP180;54349;52.528;19.760;2023-03-19T14:37:25;100608.00;;;23.20
67501;BMP180;54349;52.528;19.760;2023-03-19T14:40:12;100607.00;;;23.20
67501;BMP180;54349;52.528;19.760;2023-03-19T14:45:58;100601.00;;;23.20
67501;BMP180;54349;52.528;19.760;2023-03-19T14:52:27;100598.40;;;23.20
67501;BMP180;54349;52.528;19.760;2023-03-19T14:54:47;100595.60;;;23.20
67501;BMP180;54349;52.528;19.760;2023-03-19T14:57:21;100593.40;;;23.20
67501;BMP180;54349;52.528;19.760;2023-03-19T14:59:53;100590.60;;;23.20
67501;BMP180;54349;52.528;19.760;2023-03-19T15:02:30;100585.20;;;23.20
67501;BMP180;54349;52.528;19.760;2023-03-19T15:05:07;100593.00;;;23.20
67501;BMP180;54349;52.528;19.760;2023-03-19T15:07:42;100589.80;;;23.20
67501;BMP180;54349;52.528;19.760;2023-03-19T15:10:18;100589.40;;;23.20
67501;BMP180;54349;52.528;19.760;2023-03-19T15:18:51;100594.40;;;23.20
67501;BMP180;54349;52.528;19.760;2023-03-19T15:21:20;100597.40;;;23.16
67501;BMP180;54349;52.528;19.760;2023-03-19T15:23:48;100592.80;;;23.12
67501;BMP180;54349;52.528;19.760;2023-03-19T15:26:30;100592.60;;;23.10
67501;BMP180;54349;52.528;19.760;2023-03-19T15:28:59;100594.40;;;23.10
67501;BMP180;54349;52.528;19.760;2023-03-19T15:31:48;100592.80;;;23.10
67501;BMP180;54349;52.528;19.760;2023-03-19T15:34:31;100588.40;;;23.10
67501;BMP180;54349;52.528;19.760;2023-03-19T15:37:06;100589.20;;;23.10
67501;BMP180;54349;52.528;19.760;2023-03-19T15:39:48;100595.80;;;23.10
67501;BMP180;54349;52.528;19.760;2023-03-19T15:42:22;100592.20;;;23.10
67501;BMP180;54349;52.528;19.760;2023-03-19T15:45:13;100590.20;;;23.00
67501;BMP180;54349;52.528;19.760;2023-03-19T15:48:19;100584.60;;;23.00
67501;BMP180;54349;52.528;19.760;2023-03-19T15:50:55;100586.80;;;23.00
67501;BMP180;54349;52.528;19.760;2023-03-19T15:53:30;100589.20;;;23.00
67501;BMP180;54349;52.528;19.760;2023-03-19T15:56:01;100594.20;;;23.00
67501;BMP180;54349;52.528;19.760;2023-03-19T15:58:37;100597.20;;;22.96
67501;BMP180;54349;52.528;19.760;2023-03-19T16:01:09;100604.00;;;22.90
67501;BMP180;54349;52.528;19.760;2023-03-19T16:03:42;100607.80;;;22.90
67501;BMP180;54349;52.528;19.760;2023-03-19T16:06:22;100605.20;;;22.98
67501;BMP180;54349;52.528;19.760;2023-03-19T16:09:10;100606.00;;;23.00
67501;BMP180;54349;52.528;19.760;2023-03-19T16:11:45;100608.80;;;23.00